createdAt,value
2018-07-27T04:33:29.415Z,12.10
2018-07-27T04:35:57.592Z,12.47
2018-07-27T04:38:25.804Z,13.30
2018-07-27T04:40:53.963Z,13.67
2018-07-27T04:43:22.147Z,12.70
2018-07-27T04:45:50.279Z,12.07
2018-07-27T04:48:18.433Z,13.83
2018-07-27T04:50:46.601Z,13.00
2018-07-27T04:53:14.788Z,12.50
2018-07-27T04:55:42.970Z,12.90
2018-07-27T04:58:11.157Z,11.93
2018-07-27T05:00:39.375Z,12.30
2018-07-27T05:03:07.572Z,12.53
2018-07-27T05:05:35.768Z,12.13
2018-07-27T05:08:04.018Z,11.73
2018-07-27T05:10:37.529Z,11.97
2018-07-27T05:13:06.308Z,11.80
2018-07-27T05:15:34.555Z,11.53
2018-07-27T05:18:02.736Z,12.00
2018-07-27T05:20:31.179Z,11.27
2018-07-27T05:22:59.361Z,11.10
2018-07-27T05:25:32.156Z,11.60
2018-07-27T05:28:00.349Z,12.37
2018-07-27T05:30:28.702Z,12.17
2018-07-27T05:32:57.006Z,12.70
2018-07-27T05:35:25.481Z,11.23
2018-07-27T05:37:53.671Z,11.23
2018-07-27T05:40:21.876Z,10.50
2018-07-27T05:42:50.055Z,11.50
2018-07-27T05:45:18.201Z,12.60
2018-07-27T05:47:46.378Z,10.23
2018-07-27T05:50:14.595Z,10.63
2018-07-27T05:52:42.806Z,10.93
2018-07-27T05:55:10.981Z,9.73
2018-07-27T05:57:39.241Z,10.82
2018-07-27T06:00:08.142Z,10.87
2018-07-27T06:02:36.415Z,10.10
2018-07-27T06:05:05.226Z,9.17
2018-07-27T06:07:33.474Z,10.20
2018-07-27T06:10:01.713Z,8.70
2018-07-27T06:12:30.046Z,9.37
2018-07-27T06:14:58.296Z,8.93
2018-07-27T06:17:26.568Z,8.80
2018-07-27T06:19:54.805Z,8.77
2018-07-27T06:22:23.080Z,8.60
2018-07-27T06:24:53.853Z,7.80
2018-07-27T06:27:22.164Z,7.73
2018-07-27T06:29:50.803Z,8.07
2018-07-27T06:32:19.956Z,8.03
2018-07-27T06:34:48.214Z,8.30
2018-07-27T06:37:16.484Z,8.03
2018-07-27T06:39:45.930Z,8.40
2018-07-27T06:42:14.650Z,7.23
2018-07-27T06:44:43.165Z,7.60
2018-07-27T06:47:11.336Z,7.87
2018-07-27T06:49:39.558Z,8.07
2018-07-27T06:52:07.828Z,8.80
2018-07-27T06:54:36.095Z,8.13
2018-07-27T06:57:04.811Z,7.53
2018-07-27T06:59:33.044Z,7.37
2018-07-27T07:02:01.326Z,7.30
2018-07-27T07:04:29.558Z,7.83
2018-07-27T07:06:58.124Z,7.67
2018-07-27T07:09:26.321Z,7.50
2018-07-27T07:11:54.655Z,7.10
2018-07-27T07:14:22.908Z,7.23
2018-07-27T07:16:51.127Z,7.50
2018-07-27T07:19:19.398Z,7.50
2018-07-27T07:21:47.609Z,7.07
2018-07-27T07:24:15.796Z,7.20
2018-07-27T07:26:44.055Z,8.07
2018-07-27T07:29:12.280Z,7.50
2018-07-27T07:31:40.516Z,7.10
2018-07-27T07:34:08.768Z,7.57
2018-07-27T07:36:36.956Z,8.17
2018-07-27T07:39:07.119Z,7.60
2018-07-27T07:41:35.377Z,8.40
2018-07-27T07:44:03.602Z,8.40
2018-07-27T07:46:31.837Z,7.63
2018-07-27T07:49:03.841Z,8.50
2018-07-27T07:51:32.638Z,7.70
2018-07-27T07:54:00.876Z,7.83
2018-07-27T07:56:29.113Z,7.70
2018-07-27T07:58:57.365Z,7.80
2018-07-27T08:01:25.645Z,7.27
2018-07-27T08:03:53.883Z,7.20
2018-07-27T08:06:22.146Z,6.43
2018-07-27T08:08:50.352Z,6.90
2018-07-27T08:11:18.591Z,6.80
2018-07-27T08:13:46.852Z,7.27
2018-07-27T08:16:15.106Z,5.57
2018-07-27T08:18:43.301Z,6.67
2018-07-27T08:21:11.544Z,6.70
2018-07-27T08:23:39.903Z,6.83
2018-07-27T08:26:43.939Z,6.60
2018-07-27T08:29:14.203Z,6.77
2018-07-27T08:31:44.477Z,6.43
2018-07-27T08:34:13.479Z,6.50
2018-07-27T08:36:41.749Z,6.83
2018-07-27T08:39:10.750Z,6.43
2018-07-27T08:41:39.534Z,6.10
2018-07-27T08:44:08.707Z,7.40
2018-07-27T08:46:37.328Z,6.40
2018-07-27T08:49:05.565Z,6.30
2018-07-27T08:51:33.989Z,5.67
2018-07-27T08:54:02.263Z,6.93
2018-07-27T08:56:30.526Z,7.00
2018-07-27T08:58:58.800Z,6.27
2018-07-27T09:01:27.089Z,6.37
2018-07-27T09:03:55.379Z,6.67
2018-07-27T09:06:23.600Z,6.30
2018-07-27T09:08:52.176Z,6.53
2018-07-27T09:11:20.760Z,6.30
2018-07-27T09:13:49.445Z,6.80
2018-07-27T09:16:17.693Z,5.90
2018-07-27T09:18:45.943Z,5.73
2018-07-27T09:21:14.209Z,6.40
2018-07-27T09:23:42.483Z,6.60
2018-07-27T09:26:10.715Z,5.60
2018-07-27T09:28:39.259Z,7.00
2018-07-27T09:31:07.431Z,5.37
2018-07-27T09:33:35.663Z,5.63
2018-07-27T09:36:03.849Z,6.60
2018-07-27T09:38:32.109Z,5.97
2018-07-27T09:41:00.353Z,6.63
2018-07-27T09:43:28.598Z,5.90
2018-07-27T09:45:56.842Z,5.90
2018-07-27T09:48:25.104Z,6.27
2018-07-27T09:50:53.376Z,5.90
2018-07-27T09:53:23.042Z,5.97
2018-07-27T09:55:51.347Z,6.30
2018-07-27T09:58:19.544Z,6.20
2018-07-27T10:00:53.141Z,5.97
2018-07-27T10:03:21.392Z,6.00
2018-07-27T10:05:49.681Z,5.73
2018-07-27T10:08:17.854Z,5.20
2018-07-27T10:10:46.419Z,5.33
2018-07-27T10:13:14.623Z,4.90
2018-07-27T10:15:42.868Z,5.33
2018-07-27T10:18:11.011Z,4.57
2018-07-27T10:20:39.275Z,5.23
2018-07-27T10:23:07.500Z,5.40
2018-07-27T10:25:36.585Z,6.23
2018-07-27T10:28:04.787Z,5.50
2018-07-27T10:30:33.035Z,5.23
2018-07-27T10:33:01.713Z,5.10
2018-07-27T10:35:29.979Z,6.27
2018-07-27T10:37:58.221Z,5.03
2018-07-27T10:40:26.537Z,5.67
2018-07-27T10:42:54.702Z,4.87
2018-07-27T10:45:22.981Z,4.40
2018-07-27T10:47:51.214Z,5.27
2018-07-27T10:50:19.553Z,4.90
2018-07-27T10:52:47.755Z,4.63
2018-07-27T10:55:15.995Z,5.10
2018-07-27T10:57:44.183Z,4.87
2018-07-27T11:00:15.575Z,4.23
2018-07-27T11:02:43.781Z,4.83
2018-07-27T11:05:12.714Z,5.10
2018-07-27T11:07:40.915Z,4.70
2018-07-27T11:10:09.720Z,5.37
2018-07-27T11:12:37.925Z,4.90
2018-07-27T11:15:06.908Z,5.27
2018-07-27T11:17:35.125Z,5.23
2018-07-27T11:20:05.032Z,5.03
2018-07-27T11:22:33.211Z,5.00
2018-07-27T11:25:01.421Z,5.37
2018-07-27T11:27:29.713Z,5.40
2018-07-27T11:29:57.990Z,4.73
2018-07-27T11:32:26.197Z,4.90
2018-07-27T11:34:54.396Z,4.97
2018-07-27T11:37:23.007Z,5.30
2018-07-27T11:39:51.165Z,4.43
2018-07-27T11:42:19.462Z,4.87
2018-07-27T11:44:47.635Z,4.00
2018-07-27T11:47:15.876Z,4.90
2018-07-27T11:49:44.110Z,4.03
2018-07-27T11:52:12.477Z,4.77
2018-07-27T11:54:40.684Z,5.17
2018-07-27T11:57:08.883Z,4.73
2018-07-27T11:59:37.154Z,5.00
2018-07-27T12:02:05.431Z,5.20
2018-07-27T12:04:34.539Z,5.03
2018-07-27T12:07:02.794Z,4.20
2018-07-27T12:09:31.008Z,5.77
2018-07-27T12:11:59.247Z,5.00
2018-07-27T12:14:27.735Z,5.07
2018-07-27T12:16:56.219Z,5.60
2018-07-27T12:19:26.578Z,5.43
2018-07-27T12:21:54.812Z,4.80
2018-07-27T12:24:22.947Z,5.30
2018-07-27T12:26:51.120Z,5.20
2018-07-27T12:29:19.413Z,5.70
2018-07-27T12:31:47.636Z,5.37
2018-07-27T12:34:15.913Z,5.37
2018-07-27T12:36:44.119Z,5.30
2018-07-27T12:39:12.584Z,5.20
2018-07-27T12:41:41.766Z,5.67
2018-07-27T12:44:10.300Z,5.20
2018-07-27T12:46:39.461Z,5.30
2018-07-27T12:49:08.140Z,4.50
2018-07-27T12:51:36.355Z,5.63
2018-07-27T12:54:04.684Z,5.50
2018-07-27T12:56:32.917Z,4.90
2018-07-27T12:59:01.348Z,4.87
2018-07-27T13:01:29.460Z,4.77
2018-07-27T13:03:57.684Z,4.80
2018-07-27T13:06:25.992Z,4.57
2018-07-27T13:08:54.342Z,5.13
2018-07-27T13:11:22.577Z,4.90
2018-07-27T13:13:50.787Z,5.13
2018-07-27T13:16:18.954Z,5.07
2018-07-27T13:18:47.272Z,4.93
2018-07-27T13:21:15.495Z,4.83
2018-07-27T13:23:49.277Z,5.83
2018-07-27T13:26:24.430Z,4.87
2018-07-27T13:28:45.779Z,4.80
2018-07-27T13:31:14.009Z,4.90
2018-07-27T13:35:01.182Z,5.10
2018-07-27T13:40:00.293Z,4.90
2018-07-27T13:42:29.800Z,4.90
2018-07-27T13:44:58.027Z,4.90
2018-07-27T13:47:26.256Z,4.90
2018-07-27T13:49:54.966Z,4.70
2018-07-27T13:52:23.181Z,4.53
2018-07-27T13:54:51.575Z,4.67
2018-07-27T13:57:19.812Z,4.30
2018-07-27T13:59:48.557Z,4.40
2018-07-27T14:02:16.762Z,5.27
2018-07-27T14:04:45.017Z,4.37
2018-07-27T14:07:13.350Z,5.00
2018-07-27T14:09:41.651Z,4.60
2018-07-27T14:12:09.809Z,4.80
2018-07-27T14:14:38.002Z,5.00
2018-07-27T14:17:06.240Z,5.00
2018-07-27T14:19:34.397Z,5.00
2018-07-27T14:22:03.566Z,5.00
2018-07-27T14:24:32.133Z,4.77
2018-07-27T14:27:00.391Z,4.60
2018-07-27T14:29:28.644Z,5.53
2018-07-27T14:31:56.924Z,4.67
2018-07-27T14:34:25.213Z,5.17
2018-07-27T14:36:53.447Z,5.40
2018-07-27T14:39:21.761Z,4.97
2018-07-27T14:41:49.970Z,5.47
2018-07-27T14:44:18.203Z,4.33
2018-07-27T14:46:46.397Z,4.60
2018-07-27T14:49:15.967Z,4.63
2018-07-27T14:51:44.315Z,4.53
2018-07-27T14:54:13.647Z,4.80
2018-07-27T14:56:42.378Z,5.40
2018-07-27T14:59:11.017Z,4.90
2018-07-27T15:01:39.999Z,4.90
2018-07-27T15:04:09.317Z,5.17
2018-07-27T15:06:37.584Z,4.67
2018-07-27T15:09:07.511Z,3.97
2018-07-27T15:11:35.732Z,4.40
2018-07-27T15:14:04.002Z,4.73
2018-07-27T15:16:32.239Z,4.70
2018-07-27T15:19:00.549Z,5.00
2018-07-27T15:21:28.763Z,5.17
2018-07-27T15:23:56.960Z,4.87
2018-07-27T15:26:25.141Z,4.70
2018-07-27T15:28:53.404Z,4.97
2018-07-27T15:31:21.681Z,5.07
2018-07-27T15:33:49.947Z,4.33
2018-07-27T15:36:18.716Z,4.30
2018-07-27T15:38:47.000Z,4.53
2018-07-27T15:41:15.187Z,5.37
2018-07-27T15:43:43.349Z,4.93
2018-07-27T15:46:11.543Z,4.47
2018-07-27T15:48:39.694Z,4.67
2018-07-27T15:51:07.896Z,4.90
2018-07-27T15:53:36.114Z,4.47
2018-07-27T15:56:04.367Z,4.90
2018-07-27T15:58:32.580Z,5.20
2018-07-27T16:01:00.805Z,4.80
2018-07-27T16:03:29.020Z,4.80
2018-07-27T16:05:57.303Z,5.10
2018-07-27T16:08:25.540Z,4.90
2018-07-27T16:10:53.770Z,5.27
2018-07-27T16:13:22.003Z,4.90
2018-07-27T16:15:50.267Z,5.33
2018-07-27T16:18:18.522Z,5.37
2018-07-27T16:20:46.763Z,5.80
2018-07-27T16:23:14.937Z,4.40
2018-07-27T16:25:43.176Z,6.03
2018-07-27T16:28:11.364Z,5.33
2018-07-27T16:30:39.514Z,5.43
2018-07-27T16:33:07.726Z,6.00
2018-07-27T16:35:35.963Z,5.40
2018-07-27T16:38:05.591Z,5.50
2018-07-27T16:40:33.769Z,4.93
2018-07-27T16:43:01.944Z,5.70
2018-07-27T16:45:30.284Z,5.50
2018-07-27T16:47:58.459Z,5.40
2018-07-27T16:50:26.592Z,5.07
2018-07-27T16:52:54.784Z,5.83
2018-07-27T16:55:22.943Z,6.03
2018-07-27T16:57:51.530Z,5.57
2018-07-27T17:00:19.804Z,5.30
2018-07-27T17:02:48.014Z,4.97
2018-07-27T17:05:16.220Z,5.20
2018-07-27T17:07:44.484Z,5.00
2018-07-27T17:10:12.687Z,6.03
2018-07-27T17:12:40.925Z,5.37
2018-07-27T17:15:09.182Z,5.17
2018-07-27T17:17:37.424Z,5.20
2018-07-27T17:20:06.125Z,4.93
2018-07-27T17:22:34.333Z,5.50
2018-07-27T17:25:02.660Z,5.30
2018-07-27T17:27:30.857Z,6.03
2018-07-27T17:29:59.055Z,5.57
2018-07-27T17:32:27.551Z,5.97
2018-07-27T17:34:55.706Z,5.70
2018-07-27T17:37:23.897Z,5.30
2018-07-27T17:39:52.046Z,5.37
2018-07-27T17:42:20.220Z,5.70
2018-07-27T17:44:48.379Z,6.07
2018-07-27T17:47:16.550Z,6.17
2018-07-27T17:49:44.698Z,6.03
2018-07-27T17:52:12.889Z,5.33
2018-07-27T17:54:41.089Z,5.90
2018-07-27T17:57:09.311Z,5.73
2018-07-27T17:59:37.486Z,6.27
2018-07-27T18:02:05.708Z,5.30
2018-07-27T18:04:33.906Z,6.40
2018-07-27T18:07:02.151Z,5.80
2018-07-27T18:09:30.281Z,6.80
2018-07-27T18:11:58.455Z,5.80
2018-07-27T18:14:26.720Z,6.10
2018-07-27T18:16:55.000Z,6.30
2018-07-27T18:19:23.203Z,6.23
2018-07-27T18:21:51.392Z,6.10
2018-07-27T18:24:19.529Z,6.40
2018-07-27T18:26:47.717Z,6.20
2018-07-27T18:29:15.915Z,6.00
2018-07-27T18:31:44.121Z,6.93
2018-07-27T18:34:12.360Z,6.87
2018-07-27T18:36:40.538Z,6.37
2018-07-27T18:39:10.189Z,7.73
2018-07-27T18:41:38.420Z,6.53
2018-07-27T18:44:06.708Z,8.00
2018-07-27T18:46:34.918Z,7.40
2018-07-27T18:49:03.159Z,7.00
2018-07-27T18:51:31.429Z,6.80
2018-07-27T18:54:00.069Z,6.43
2018-07-27T18:56:28.390Z,6.90
2018-07-27T18:58:56.647Z,6.30
2018-07-27T19:01:24.924Z,6.20
2018-07-27T19:03:53.387Z,6.57
2018-07-27T19:06:21.633Z,6.57
2018-07-27T19:08:49.892Z,6.50
2018-07-27T19:14:10.198Z,7.60
2018-07-27T19:16:38.493Z,7.17
2018-07-27T19:19:06.790Z,7.50
2018-07-27T19:21:35.032Z,7.70
2018-07-27T19:24:03.292Z,8.40
2018-07-27T19:26:31.544Z,8.00
2018-07-27T19:28:59.780Z,8.27
2018-07-27T19:31:28.029Z,6.90
2018-07-27T19:33:56.325Z,7.97
2018-07-27T19:36:24.563Z,8.03
2018-07-27T19:38:52.810Z,8.67
2018-07-27T19:41:21.087Z,7.57
2018-07-27T19:43:49.497Z,7.37
2018-07-27T19:46:17.686Z,7.30
2018-07-27T19:48:45.866Z,7.10
2018-07-27T19:51:14.101Z,8.27
2018-07-27T19:53:42.323Z,7.40
2018-07-27T19:56:10.507Z,7.93
2018-07-27T19:58:38.721Z,7.63
2018-07-27T20:01:06.929Z,7.27
2018-07-27T20:03:35.170Z,7.70
2018-07-27T20:06:03.378Z,7.70
2018-07-27T20:08:31.616Z,8.70
2018-07-27T20:10:59.790Z,8.13
2018-07-27T20:13:27.997Z,8.27
2018-07-27T20:15:56.181Z,8.70
2018-07-27T20:18:24.830Z,8.50
2018-07-27T20:20:53.074Z,8.23
2018-07-27T20:23:21.297Z,9.43
2018-07-27T20:25:49.492Z,8.73
2018-07-27T20:28:17.696Z,8.33
2018-07-27T20:30:45.865Z,8.80
2018-07-27T20:33:15.123Z,9.00
2018-07-27T20:35:43.305Z,9.30
2018-07-27T20:38:11.561Z,9.20
2018-07-27T20:40:39.763Z,9.13
2018-07-27T20:43:07.991Z,10.00
2018-07-27T20:45:36.219Z,9.30
2018-07-27T20:48:04.586Z,8.60
2018-07-27T20:50:32.817Z,9.60
2018-07-27T20:53:01.058Z,8.83
2018-07-27T20:55:29.301Z,9.80
2018-07-27T20:57:57.518Z,9.30
2018-07-27T21:00:25.718Z,8.60
2018-07-27T21:02:53.949Z,9.13
2018-07-27T21:05:22.174Z,8.90
2018-07-27T21:07:50.369Z,9.17
2018-07-27T21:10:18.576Z,9.93
2018-07-27T21:12:46.809Z,9.37
2018-07-27T21:15:15.021Z,8.73
2018-07-27T21:17:43.677Z,9.40
2018-07-27T21:20:11.912Z,9.83
2018-07-27T21:22:40.148Z,8.57
2018-07-27T21:25:08.358Z,9.50
2018-07-27T21:27:36.566Z,9.10
2018-07-27T21:30:04.838Z,9.03
2018-07-27T21:32:33.004Z,9.50
2018-07-27T21:35:01.236Z,9.37
2018-07-27T21:37:29.467Z,8.87
2018-07-27T21:39:57.684Z,9.27
2018-07-27T21:42:25.862Z,9.53
2018-07-27T21:44:54.103Z,9.87
2018-07-27T21:47:22.285Z,10.23
2018-07-27T21:49:50.551Z,10.07
2018-07-27T21:52:18.794Z,10.20
2018-07-27T21:54:47.023Z,9.50
2018-07-27T21:57:15.206Z,9.37
2018-07-27T21:59:43.427Z,10.43
